createdAt,value
2018-07-30T00:00:13.261Z,5.70
2018-07-30T00:02:45.307Z,5.40
2018-07-30T00:05:14.583Z,5.50
2018-07-30T00:07:43.816Z,5.47
2018-07-30T00:10:13.039Z,6.00
2018-07-30T00:12:42.715Z,6.20
2018-07-30T00:15:11.932Z,5.80
2018-07-30T00:17:41.132Z,6.17
2018-07-30T00:20:10.360Z,5.90
2018-07-30T00:22:39.576Z,5.37
2018-07-30T00:25:09.532Z,6.07
2018-07-30T00:27:38.751Z,6.20
2018-07-30T00:30:07.955Z,5.97
2018-07-30T00:32:37.803Z,6.70
2018-07-30T00:35:07.599Z,6.50
2018-07-30T00:37:36.835Z,6.10
2018-07-30T00:40:08.060Z,7.03
2018-07-30T00:42:38.297Z,6.07
2018-07-30T00:45:07.546Z,6.10
2018-07-30T00:47:36.764Z,6.43
2018-07-30T00:50:06.034Z,6.63
2018-07-30T00:52:35.228Z,6.30
2018-07-30T00:55:05.040Z,5.90
2018-07-30T00:57:34.232Z,6.00
2018-07-30T01:00:03.484Z,5.53
2018-07-30T01:02:32.711Z,6.50
2018-07-30T01:05:01.908Z,6.50
2018-07-30T01:07:31.259Z,6.00
2018-07-30T01:10:00.345Z,6.13
2018-07-30T01:12:29.578Z,6.13
2018-07-30T01:14:58.757Z,6.70
2018-07-30T01:17:28.436Z,6.47
2018-07-30T01:19:57.649Z,6.13
2018-07-30T01:22:26.836Z,6.20
2018-07-30T01:24:56.080Z,6.20
2018-07-30T01:27:25.278Z,6.80
2018-07-30T01:29:54.467Z,5.90
2018-07-30T01:32:23.676Z,6.30
2018-07-30T01:34:53.145Z,6.27
2018-07-30T01:37:22.351Z,6.50
2018-07-30T01:39:52.143Z,7.07
2018-07-30T01:42:21.327Z,6.80
2018-07-30T01:44:50.515Z,6.77
2018-07-30T01:47:19.740Z,6.50
2018-07-30T01:49:48.923Z,5.90
2018-07-30T01:52:18.123Z,6.30
2018-07-30T01:54:47.345Z,6.30
2018-07-30T01:57:16.543Z,6.40
2018-07-30T01:59:46.020Z,6.50
2018-07-30T02:02:15.317Z,6.63
2018-07-30T02:04:44.768Z,5.90
2018-07-30T02:07:14.020Z,6.10
2018-07-30T02:09:43.440Z,6.77
2018-07-30T02:12:12.639Z,5.93
2018-07-30T02:14:41.838Z,6.67
2018-07-30T02:17:11.051Z,7.10
2018-07-30T02:19:40.220Z,6.73
2018-07-30T02:22:09.427Z,6.50
2018-07-30T02:24:38.786Z,6.30
2018-07-30T02:27:07.980Z,6.23
2018-07-30T02:29:37.215Z,6.10
2018-07-30T02:32:07.280Z,5.90
2018-07-30T02:34:36.514Z,6.00
2018-07-30T02:37:06.027Z,5.97
2018-07-30T02:39:35.148Z,5.90
2018-07-30T02:42:04.366Z,6.23
2018-07-30T02:44:33.569Z,6.80
2018-07-30T02:47:03.270Z,6.27
2018-07-30T02:49:32.466Z,6.90
2018-07-30T02:52:01.863Z,5.73
2018-07-30T02:54:31.093Z,6.90
2018-07-30T02:57:00.293Z,6.20
2018-07-30T02:59:29.506Z,6.33
2018-07-30T03:01:58.721Z,5.33
2018-07-30T03:04:27.936Z,6.60
2018-07-30T03:06:57.170Z,6.40
2018-07-30T03:09:28.294Z,6.47
2018-07-30T03:11:57.459Z,6.77
2018-07-30T03:14:26.312Z,6.70
2018-07-30T03:16:55.604Z,6.23
2018-07-30T03:19:24.795Z,7.90
2018-07-30T03:21:53.992Z,6.80
2018-07-30T03:24:23.215Z,6.97
2018-07-30T03:26:52.460Z,6.83
2018-07-30T03:29:21.653Z,6.60
2018-07-30T03:31:51.284Z,7.07
2018-07-30T03:34:20.459Z,6.23
2018-07-30T03:36:49.660Z,6.93
2018-07-30T03:39:19.311Z,7.67
2018-07-30T03:41:48.512Z,6.33
2018-07-30T03:44:17.697Z,6.60
2018-07-30T03:46:46.940Z,7.30
2018-07-30T03:49:16.183Z,8.00
2018-07-30T03:51:45.396Z,7.27
2018-07-30T03:54:14.997Z,7.40
2018-07-30T03:56:44.188Z,7.20
2018-07-30T03:59:13.678Z,7.90
2018-07-30T04:01:42.995Z,6.70
2018-07-30T04:04:12.244Z,6.13
2018-07-30T04:06:41.439Z,6.03
2018-07-30T04:09:10.698Z,6.03
2018-07-30T04:11:39.894Z,6.83
2018-07-30T04:14:09.093Z,6.23
2018-07-30T04:16:43.236Z,6.50
2018-07-30T04:19:12.468Z,6.73
2018-07-30T04:21:41.659Z,6.40
2018-07-30T04:24:10.900Z,7.00
2018-07-30T04:26:39.968Z,7.83
2018-07-30T04:29:09.155Z,7.43
2018-07-30T04:31:38.382Z,7.60
2018-07-30T04:34:07.856Z,8.13
2018-07-30T04:36:37.684Z,7.20
2018-07-30T04:39:10.719Z,7.50
2018-07-30T04:41:40.079Z,8.47
2018-07-30T04:44:09.372Z,7.63
2018-07-30T04:46:38.711Z,7.50
2018-07-30T04:49:07.908Z,7.60
2018-07-30T04:51:37.600Z,7.10
2018-07-30T04:54:07.024Z,7.33
2018-07-30T04:56:36.220Z,7.20
2018-07-30T04:59:05.439Z,7.20
2018-07-30T05:01:35.007Z,7.73
2018-07-30T05:04:04.292Z,7.00
2018-07-30T05:06:33.714Z,7.07
2018-07-30T05:09:03.009Z,8.47
2018-07-30T05:11:32.180Z,8.17
2018-07-30T05:14:01.191Z,7.47
2018-07-30T05:16:30.323Z,7.97
2018-07-30T05:18:59.506Z,8.57
2018-07-30T05:21:28.896Z,7.70
2018-07-30T05:23:58.408Z,8.10
2018-07-30T05:26:27.620Z,8.00
2018-07-30T05:28:56.836Z,7.23
2018-07-30T05:31:27.364Z,7.63
2018-07-30T05:33:56.655Z,7.70
2018-07-30T05:36:25.840Z,7.83
2018-07-30T05:38:55.179Z,8.20
2018-07-30T05:41:24.391Z,7.90
2018-07-30T05:43:53.679Z,8.20
2018-07-30T05:46:23.741Z,8.20
2018-07-30T05:48:52.936Z,8.30
2018-07-30T05:51:22.144Z,7.30
2018-07-30T05:53:51.380Z,7.67
2018-07-30T05:56:20.569Z,9.20
2018-07-30T05:58:50.075Z,7.97
2018-07-30T06:01:19.345Z,7.37
2018-07-30T06:03:48.532Z,7.70
2018-07-30T06:06:17.740Z,7.97
2018-07-30T06:08:47.208Z,8.60
2018-07-30T06:11:16.400Z,9.00
2018-07-30T06:13:45.604Z,7.67
2018-07-30T06:16:14.842Z,9.10
2018-07-30T06:18:44.358Z,9.00
2018-07-30T06:21:13.544Z,8.63
2018-07-30T06:23:42.972Z,8.30
2018-07-30T06:26:12.167Z,8.80
2018-07-30T06:28:41.756Z,7.77
2018-07-30T06:31:11.672Z,8.10
2018-07-30T06:33:40.874Z,8.27
2018-07-30T06:36:10.072Z,8.70
2018-07-30T06:38:39.316Z,8.60
2018-07-30T06:41:08.520Z,8.00
2018-07-30T06:43:37.390Z,7.70
2018-07-30T06:46:06.978Z,8.80
2018-07-30T06:48:36.168Z,7.47
2018-07-30T06:51:05.388Z,8.93
2018-07-30T06:53:34.871Z,8.23
2018-07-30T06:56:04.077Z,7.50
2018-07-30T06:58:33.280Z,8.87
2018-07-30T07:01:02.524Z,9.67
2018-07-30T07:03:31.791Z,6.90
2018-07-30T07:06:00.996Z,7.40
2018-07-30T07:08:30.208Z,7.33
2018-07-30T07:10:59.824Z,7.10
2018-07-30T07:13:28.996Z,7.97
2018-07-30T07:15:58.784Z,7.57
2018-07-30T07:18:27.965Z,7.60
2018-07-30T07:20:57.172Z,7.00
2018-07-30T07:23:26.508Z,7.57
2018-07-30T07:26:02.513Z,7.33
2018-07-30T07:28:33.845Z,6.73
2018-07-30T07:31:10.450Z,7.07
2018-07-30T07:33:40.859Z,6.87
2018-07-30T07:36:10.032Z,6.50
2018-07-30T07:38:39.430Z,7.10
2018-07-30T07:41:13.654Z,7.83
2018-07-30T07:43:42.543Z,7.20
2018-07-30T07:46:11.972Z,7.07
2018-07-30T07:48:41.223Z,7.90
2018-07-30T07:51:10.421Z,6.30
2018-07-30T07:53:39.620Z,7.00
2018-07-30T07:56:09.400Z,7.10
2018-07-30T07:58:38.804Z,7.73
2018-07-30T08:01:08.034Z,6.43
2018-07-30T08:03:37.260Z,6.47
2018-07-30T08:06:06.289Z,6.57
2018-07-30T08:08:35.376Z,6.90
2018-07-30T08:11:04.755Z,6.30
2018-07-30T08:13:34.020Z,6.47
2018-07-30T08:16:03.228Z,6.70
2018-07-30T08:18:35.100Z,6.63
2018-07-30T08:21:04.428Z,7.00
2018-07-30T08:23:34.415Z,5.80
2018-07-30T08:26:03.473Z,5.80
2018-07-30T08:28:32.631Z,6.20
2018-07-30T08:31:01.821Z,6.80
2018-07-30T08:33:30.747Z,6.33
2018-07-30T08:35:59.817Z,5.60
2018-07-30T08:38:29.013Z,6.67
2018-07-30T08:40:58.654Z,5.97
2018-07-30T08:43:28.029Z,6.00
2018-07-30T08:45:57.273Z,5.87
2018-07-30T08:48:27.011Z,6.10
2018-07-30T08:50:56.767Z,6.53
2018-07-30T08:53:26.503Z,6.53
2018-07-30T08:55:55.764Z,6.30
2018-07-30T08:58:25.984Z,5.83
2018-07-30T09:00:55.188Z,5.80
2018-07-30T09:03:26.964Z,6.50
2018-07-30T09:05:56.220Z,5.43
2018-07-30T09:08:25.710Z,5.33
2018-07-30T09:10:55.008Z,5.30
2018-07-30T09:13:24.532Z,6.30
2018-07-30T09:15:57.583Z,5.40
2018-07-30T09:18:27.080Z,5.43
2018-07-30T09:20:56.357Z,4.60
2018-07-30T09:23:25.568Z,5.40
2018-07-30T09:25:55.014Z,6.57
2018-07-30T09:28:30.872Z,5.00
2018-07-30T09:31:00.507Z,5.30
2018-07-30T09:33:30.126Z,7.40
2018-07-30T09:35:59.688Z,4.50
2018-07-30T09:38:28.916Z,4.93
2018-07-30T09:40:58.303Z,4.53
2018-07-30T09:43:28.802Z,4.60
2018-07-30T09:45:58.588Z,3.43
2018-07-30T09:48:28.294Z,3.63
2018-07-30T09:50:57.959Z,4.30
2018-07-30T09:53:27.978Z,3.37
2018-07-30T09:55:57.359Z,2.87
2018-07-30T09:58:26.552Z,3.70
2018-07-30T10:01:32.490Z,3.43
2018-07-30T10:04:01.984Z,3.53
2018-07-30T10:06:31.164Z,4.20
2018-07-30T10:09:00.419Z,4.13
2018-07-30T10:11:29.636Z,3.60
2018-07-30T10:13:59.086Z,4.13
2018-07-30T10:16:30.828Z,4.10
2018-07-30T10:19:00.049Z,3.47
2018-07-30T10:21:29.253Z,3.83
2018-07-30T10:23:58.974Z,3.40
2018-07-30T10:26:28.821Z,3.40
2018-07-30T10:28:58.052Z,3.37
2018-07-30T10:31:27.900Z,3.50
2018-07-30T10:33:57.387Z,3.97
2018-07-30T10:36:28.793Z,3.97
2018-07-30T10:38:57.952Z,4.13
2018-07-30T10:41:28.180Z,3.87
2018-07-30T10:43:57.863Z,4.60
2018-07-30T10:46:29.249Z,3.50
2018-07-30T10:49:01.740Z,3.93
2018-07-30T10:51:30.988Z,3.80
2018-07-30T10:54:00.788Z,4.23
2018-07-30T10:56:30.122Z,3.90
2018-07-30T10:58:59.287Z,3.93
2018-07-30T11:01:28.712Z,3.47
2018-07-30T11:03:58.316Z,3.57
2018-07-30T11:06:27.636Z,4.70
2018-07-30T11:08:56.808Z,4.43
2018-07-30T11:11:26.316Z,4.07
2018-07-30T11:13:55.952Z,3.67
2018-07-30T11:16:25.255Z,3.47
2018-07-30T11:18:54.916Z,3.50
2018-07-30T11:21:26.457Z,3.03
2018-07-30T11:23:55.785Z,3.80
2018-07-30T11:26:26.412Z,4.27
2018-07-30T11:28:55.902Z,3.20
2018-07-30T11:31:25.311Z,3.53
2018-07-30T11:33:54.741Z,3.47
2018-07-30T11:36:23.932Z,2.90
2018-07-30T11:38:53.349Z,3.60
2018-07-30T11:41:23.432Z,3.80
2018-07-30T11:43:53.614Z,3.10
2018-07-30T11:46:22.943Z,3.30
2018-07-30T11:48:55.201Z,3.10
2018-07-30T11:51:25.124Z,2.83
2018-07-30T11:53:54.308Z,3.30
2018-07-30T11:56:23.519Z,3.10
2018-07-30T11:58:52.980Z,3.00
2018-07-30T12:01:22.496Z,3.00
2018-07-30T12:03:51.680Z,2.70
2018-07-30T12:06:20.900Z,2.50
2018-07-30T12:08:50.570Z,2.70
2018-07-30T12:11:20.072Z,2.70
2018-07-30T12:13:49.268Z,2.77
2018-07-30T12:16:18.472Z,3.00
2018-07-30T12:18:47.799Z,2.80
2018-07-30T12:21:17.063Z,2.70
2018-07-30T12:23:45.968Z,2.60
2018-07-30T12:26:18.025Z,2.87
2018-07-30T12:28:48.344Z,2.50
2018-07-30T12:31:17.740Z,3.07
2018-07-30T12:33:47.529Z,2.80
2018-07-30T12:36:16.824Z,3.00
2018-07-30T12:38:46.342Z,2.80
2018-07-30T12:41:15.391Z,2.60
2018-07-30T12:43:44.471Z,3.27
2018-07-30T12:46:13.730Z,2.70
2018-07-30T12:48:42.971Z,2.60
2018-07-30T12:51:12.212Z,2.30
2018-07-30T12:53:41.690Z,2.33
2018-07-30T12:56:15.182Z,2.57
2018-07-30T12:58:46.608Z,2.50
2018-07-30T13:01:15.920Z,2.30
2018-07-30T13:03:46.113Z,2.50
2018-07-30T13:06:18.808Z,2.60
2018-07-30T13:08:49.046Z,2.97
2018-07-30T13:11:18.375Z,3.00
2018-07-30T13:13:47.734Z,2.50
2018-07-30T13:16:18.767Z,2.40
2018-07-30T13:18:49.916Z,2.80
2018-07-30T13:21:19.579Z,2.70
2018-07-30T13:23:49.400Z,2.70
2018-07-30T13:26:19.774Z,2.80
2018-07-30T13:28:50.032Z,2.80
2018-07-30T13:31:19.727Z,2.47
2018-07-30T13:33:52.400Z,2.40
2018-07-30T13:36:22.289Z,2.27
2018-07-30T13:38:51.534Z,2.60
2018-07-30T13:41:20.753Z,2.30
2018-07-30T13:43:50.576Z,2.37
2018-07-30T13:46:19.920Z,2.40
2018-07-30T13:48:50.607Z,2.67
2018-07-30T13:51:20.218Z,2.20
2018-07-30T13:53:50.344Z,2.30
2018-07-30T13:56:25.248Z,2.50
2018-07-30T13:58:54.469Z,2.20
2018-07-30T14:01:23.667Z,2.40
2018-07-30T14:03:53.011Z,2.17
2018-07-30T14:06:22.492Z,2.40
2018-07-30T14:08:52.076Z,2.20
2018-07-30T14:11:21.864Z,2.30
2018-07-30T14:13:54.112Z,2.20
2018-07-30T14:16:24.194Z,2.27
2018-07-30T14:18:53.885Z,2.10
2018-07-30T14:21:24.536Z,2.12
2018-07-30T14:23:53.428Z,2.27
2018-07-30T14:26:22.896Z,1.87
2018-07-30T14:28:52.420Z,2.10
2018-07-30T14:31:22.559Z,2.33
2018-07-30T14:33:51.633Z,1.82
2018-07-30T14:36:21.019Z,1.87
2018-07-30T14:38:51.488Z,2.20
2018-07-30T14:41:20.784Z,1.90
2018-07-30T14:43:50.236Z,2.20
2018-07-30T14:46:20.656Z,2.17
2018-07-30T14:48:49.879Z,2.00
2018-07-30T14:51:19.096Z,2.20
2018-07-30T14:53:48.324Z,1.90
2018-07-30T14:56:18.303Z,2.20
2018-07-30T14:58:47.512Z,2.50
2018-07-30T15:01:17.059Z,2.33
2018-07-30T15:03:46.268Z,2.08
2018-07-30T15:06:15.906Z,2.47
2018-07-30T15:08:45.075Z,2.05
2018-07-30T15:11:14.652Z,2.58
2018-07-30T15:13:43.872Z,2.10
2018-07-30T15:16:13.324Z,1.93
2018-07-30T15:18:42.559Z,2.50
2018-07-30T15:21:11.772Z,2.20
2018-07-30T15:23:41.422Z,1.95
2018-07-30T15:26:10.764Z,2.27
2018-07-30T15:28:39.964Z,2.10
2018-07-30T15:31:09.208Z,2.20
2018-07-30T15:33:38.400Z,2.15
2018-07-30T15:36:07.627Z,2.33
2018-07-30T15:38:36.860Z,2.40
2018-07-30T15:41:06.127Z,1.90
2018-07-30T15:43:35.366Z,1.90
2018-07-30T15:46:05.081Z,1.90
2018-07-30T15:48:34.356Z,2.00
2018-07-30T15:51:03.559Z,2.10
2018-07-30T15:53:32.779Z,2.00
2018-07-30T15:56:01.982Z,1.72
2018-07-30T15:58:31.330Z,1.98
2018-07-30T16:01:00.561Z,1.90
2018-07-30T16:03:29.774Z,1.80
2018-07-30T16:05:58.960Z,1.85
2018-07-30T16:08:28.480Z,1.87
2018-07-30T16:10:57.689Z,1.62
2018-07-30T16:13:26.944Z,2.12
2018-07-30T16:15:56.164Z,1.90
2018-07-30T16:18:26.687Z,2.08
2018-07-30T16:20:56.212Z,2.45
2018-07-30T16:23:25.508Z,1.90
2018-07-30T16:25:54.611Z,1.82
2018-07-30T16:28:23.855Z,1.80
2018-07-30T16:30:53.480Z,2.50
2018-07-30T16:33:22.858Z,2.07
2018-07-30T16:35:54.282Z,1.90
2018-07-30T16:38:23.758Z,2.50
2018-07-30T16:40:53.444Z,1.70
2018-07-30T16:43:22.751Z,1.87
2018-07-30T16:45:51.996Z,1.80
2018-07-30T16:48:21.403Z,1.90
2018-07-30T16:50:50.905Z,1.98
2018-07-30T16:53:20.363Z,2.10
2018-07-30T16:55:50.167Z,1.70
2018-07-30T16:58:19.568Z,1.72
2018-07-30T17:00:48.783Z,1.90
2018-07-30T17:03:18.093Z,2.20
2018-07-30T17:05:47.317Z,1.75
2018-07-30T17:08:16.756Z,2.33
2018-07-30T17:10:45.964Z,2.15
2018-07-30T17:13:15.368Z,2.20
2018-07-30T17:15:45.211Z,2.20
2018-07-30T17:18:14.439Z,2.20
2018-07-30T17:20:43.680Z,2.13
2018-07-30T17:23:13.098Z,2.63
2018-07-30T17:25:42.287Z,2.30
2018-07-30T17:28:11.641Z,2.20
2018-07-30T17:30:41.906Z,2.30
2018-07-30T17:33:11.256Z,2.30
2018-07-30T17:35:40.873Z,2.63
2018-07-30T17:38:10.364Z,2.40
2018-07-30T17:40:39.525Z,2.40
2018-07-30T17:43:09.541Z,2.43
2018-07-30T17:45:39.708Z,1.97
2018-07-30T17:48:09.388Z,1.77
2018-07-30T17:50:38.760Z,2.20
2018-07-30T17:53:08.122Z,2.20
2018-07-30T17:55:37.572Z,2.10
2018-07-30T17:58:06.610Z,2.73
2018-07-30T18:00:36.951Z,2.63
2018-07-30T18:03:06.864Z,2.77
2018-07-30T18:05:36.088Z,2.93
2018-07-30T18:08:07.851Z,3.90
2018-07-30T18:10:37.203Z,3.20
2018-07-30T18:13:06.794Z,3.20
2018-07-30T18:15:36.002Z,3.30
2018-07-30T18:18:05.952Z,3.20
2018-07-30T18:20:35.324Z,2.80
2018-07-30T18:23:04.544Z,3.07
2018-07-30T18:25:33.887Z,2.97
2018-07-30T18:28:03.098Z,3.00
2018-07-30T18:30:32.460Z,3.40
2018-07-30T18:33:02.284Z,3.00
2018-07-30T18:35:32.245Z,3.17
2018-07-30T18:38:01.768Z,3.40
2018-07-30T18:40:31.384Z,3.27
2018-07-30T18:43:00.592Z,3.17
2018-07-30T18:45:29.932Z,3.13
2018-07-30T18:47:59.637Z,3.80
2018-07-30T18:50:28.873Z,3.60
2018-07-30T18:52:58.231Z,3.13
2018-07-30T18:55:29.008Z,3.20
2018-07-30T18:57:58.435Z,3.43
2018-07-30T19:00:28.104Z,3.70
2018-07-30T19:02:58.014Z,3.70
2018-07-30T19:05:27.752Z,3.60
2018-07-30T19:07:57.040Z,3.50
2018-07-30T19:10:26.377Z,3.40
2018-07-30T19:12:55.825Z,3.20
2018-07-30T19:15:25.411Z,3.30
2018-07-30T19:17:54.748Z,3.20
2018-07-30T19:20:23.953Z,3.80
2018-07-30T19:22:53.421Z,3.67
2018-07-30T19:25:23.108Z,3.70
2018-07-30T19:27:52.608Z,4.03
2018-07-30T19:30:21.835Z,3.83
2018-07-30T19:32:51.040Z,3.77
2018-07-30T19:35:20.275Z,3.40
2018-07-30T19:37:49.457Z,3.30
2018-07-30T19:40:19.359Z,3.40
2018-07-30T19:42:48.569Z,4.20
2018-07-30T19:45:17.732Z,3.30
2018-07-30T19:47:47.044Z,3.80
2018-07-30T19:50:16.268Z,4.27
2018-07-30T19:52:46.532Z,5.87
2018-07-30T19:55:15.874Z,5.00
2018-07-30T19:57:45.331Z,4.77
2018-07-30T20:00:14.828Z,5.07
2018-07-30T20:02:44.125Z,3.53
2018-07-30T20:05:13.316Z,3.70
2018-07-30T20:07:42.504Z,3.83
2018-07-30T20:10:11.911Z,4.00
2018-07-30T20:12:41.124Z,4.57
2018-07-30T20:15:10.724Z,4.40
2018-07-30T20:17:40.180Z,5.93
2018-07-30T20:20:14.404Z,5.07
2018-07-30T20:22:44.059Z,5.10
2018-07-30T20:25:14.221Z,5.30
2018-07-30T20:27:44.140Z,5.80
2018-07-30T20:30:13.416Z,5.43
2018-07-30T20:32:42.602Z,6.40
2018-07-30T20:35:11.795Z,5.90
2018-07-30T20:37:41.184Z,5.07
2018-07-30T20:40:10.399Z,4.60
2018-07-30T20:42:39.619Z,5.07
2018-07-30T20:45:08.912Z,5.03
2018-07-30T20:47:38.584Z,4.87
2018-07-30T20:50:07.784Z,4.70
2018-07-30T20:52:38.013Z,4.93
2018-07-30T20:55:07.272Z,5.30
2018-07-30T20:57:36.516Z,5.17
2018-07-30T21:00:06.884Z,4.73
2018-07-30T21:02:36.808Z,5.17
2018-07-30T21:05:06.108Z,4.70
2018-07-30T21:07:35.446Z,4.30
2018-07-30T21:10:04.708Z,5.63
2018-07-30T21:12:33.921Z,5.33
2018-07-30T21:15:04.148Z,4.80
2018-07-30T21:17:33.367Z,4.80
2018-07-30T21:20:02.596Z,6.50
2018-07-30T21:22:31.884Z,5.80
2018-07-30T21:25:01.090Z,4.80
2018-07-30T21:27:30.291Z,4.90
2018-07-30T21:29:59.504Z,5.67
2018-07-30T21:32:28.713Z,4.90
2018-07-30T21:34:57.956Z,5.50
2018-07-30T21:37:27.544Z,5.20
2018-07-30T21:39:56.781Z,5.90
2018-07-30T21:42:26.232Z,5.07
2018-07-30T21:44:55.458Z,5.47
2018-07-30T21:47:24.882Z,5.10
2018-07-30T21:49:54.009Z,5.00
2018-07-30T21:52:23.212Z,4.70
2018-07-30T21:54:52.515Z,4.73
2018-07-30T21:57:21.708Z,4.80
2018-07-30T21:59:51.248Z,4.43
2018-07-30T22:02:20.671Z,4.40
2018-07-30T22:04:50.572Z,4.37
2018-07-30T22:07:19.801Z,4.63
2018-07-30T22:09:49.016Z,4.43
2018-07-30T22:12:18.197Z,4.83
2018-07-30T22:14:47.468Z,4.70
2018-07-30T22:17:16.650Z,4.73
2018-07-30T22:19:45.847Z,4.50
2018-07-30T22:22:15.567Z,4.60
2018-07-30T22:24:44.747Z,5.10
2018-07-30T22:27:13.944Z,4.90
2018-07-30T22:29:43.198Z,4.70
2018-07-30T22:32:12.529Z,4.80
2018-07-30T22:34:41.723Z,4.63
2018-07-30T22:37:10.611Z,4.30
2018-07-30T22:39:39.679Z,4.43
2018-07-30T22:42:08.872Z,4.97
2018-07-30T22:44:38.352Z,4.40
2018-07-30T22:47:07.565Z,5.17
2018-07-30T22:49:36.748Z,4.83
2018-07-30T22:52:06.335Z,4.70
2018-07-30T22:54:35.792Z,5.07
2018-07-30T22:57:05.081Z,5.10
2018-07-30T22:59:34.292Z,4.27
2018-07-30T23:02:03.574Z,4.87
2018-07-30T23:04:32.803Z,5.30
2018-07-30T23:07:03.594Z,4.80
2018-07-30T23:09:32.944Z,4.60
2018-07-30T23:12:02.264Z,4.37
2018-07-30T23:14:31.464Z,4.10
2018-07-30T23:17:00.331Z,4.23
2018-07-30T23:19:29.540Z,4.00
2018-07-30T23:21:58.788Z,5.23
2018-07-30T23:24:27.976Z,5.13
2018-07-30T23:26:57.156Z,4.80
2018-07-30T23:29:26.680Z,4.80
2018-07-30T23:31:55.864Z,4.57
2018-07-30T23:34:25.057Z,4.20
2018-07-30T23:36:54.338Z,4.77
2018-07-30T23:39:23.492Z,4.70
2018-07-30T23:41:52.702Z,4.30
2018-07-30T23:44:22.228Z,4.43
2018-07-30T23:46:51.428Z,4.90
2018-07-30T23:49:20.640Z,4.60
2018-07-30T23:51:50.388Z,3.80
2018-07-30T23:54:19.627Z,4.23
2018-07-30T23:56:48.849Z,4.80
2018-07-30T23:59:18.095Z,4.57
